• Join FlightAware (Why Join?)
  • Login
  • US Flag 
10:22PM EST


 

Airport Tracker/Info


-or-


 

Live Flight TrackerFlight Track Log ✈ N4167L ✈ 16-Nov-2013 ✈ KBED - KCQX

Flight Track Log - Related Links

Times and Time Zones

All times are in EST time to prevent confusion due to time zone crossing. See the N4167L flight status page for this flight to view local times or setup timezone preferences in your user account.

Time Position Orientation Groundspeed Altitude Reporting Facility
EST Latitude Longitude Course Direction KTS MPH feet Rate Location/Type
10:29AM 42.4833 -71.2667 294° West 89 102 900  Level KA90
10:30AM 42.5000 -71.3167 294° West 113 130 1,600 420 Climbing KA90
10:31AM 42.4667 -71.3333 200° South 119 137 2,000 480 Climbing KA90
10:32AM 42.4333 -71.3333 180° South 115 132 2,600 360 Climbing KA90
10:33AM 42.4000 -71.3333 180° South 124 143 2,800 60 Climbing KA90
10:34AM 42.3667 -71.3167 160° South 120 138 2,800  Level KA90
10:35AM 42.3500 -71.3000 144° Southeast 118 136 2,800  Level KA90
10:36AM 42.3281 -71.2861 155° Southeast 119 137 2,800  Level Boston Center
10:37AM 42.3006 -71.2606 145° Southeast 121 139 2,800 -60 Level Boston Center
10:38AM 42.2717 -71.2369 149° Southeast 121 139 2,700  Descending Boston Center
10:39AM 42.2422 -71.2103 146° Southeast 118 136 2,800  Climbing Boston Center
10:40AM 42.2147 -71.1861 147° Southeast 118 136 2,700 -60 Descending Boston Center
10:41AM 42.1875 -71.1611 146° Southeast 119 137 2,700  Level Boston Center
10:42AM 42.1658 -71.1275 131° Southeast 120 138 2,700  Level Boston Center
10:43AM 42.1464 -71.0861 122° Southeast 123 142 2,800  Climbing Boston Center
10:44AM 42.1281 -71.0464 122° Southeast 124 143 2,800  Level Boston Center
10:45AM 42.1136 -71.0047 115° Southeast 123 142 2,800  Level Boston Center
10:46AM 42.1000 -70.9500 109° East 127 146 2,800  Level KA90
10:47AM 42.0833 -70.9000 114° Southeast 128 147 2,800  Level KA90
10:48AM 42.0714 -70.8711 119° Southeast 128 147 2,800 -60 Level Boston Center
10:49AM 42.0589 -70.8311 113° Southeast 127 146 2,700 -60 Descending Boston Center
10:50AM 42.0431 -70.7875 116° Southeast 130 150 2,700  Level Boston Center
10:51AM 42.0244 -70.7483 123° Southeast 125 144 2,700 -60 Level Boston Center
10:52AM 42.0053 -70.7097 124° Southeast 124 143 2,600  Descending Boston Center
10:53AM 41.9850 -70.6717 126° Southeast 125 144 2,700  Climbing Boston Center
10:54AM 41.9617 -70.6269 125° Southeast 123 142 2,600 -120 Descending Boston Center
10:55AM 41.9422 -70.5931 128° Southeast 117 135 2,500  Descending Boston Center
10:56AM 41.9197 -70.5633 135° Southeast 115 132 2,700 60 Climbing Boston Center
10:57AM 41.8953 -70.5336 138° Southeast 117 135 2,700  Level Boston Center
10:58AM 41.8694 -70.5022 138° Southeast 124 143 2,700  Level Boston Center
10:59AM 41.8439 -70.4731 140° Southeast 123 142 2,800  Climbing Boston Center
11:00AM 41.8194 -70.4431 138° Southeast 121 139 2,800  Level Boston Center
11:01AM 41.7958 -70.4114 135° Southeast 121 139 2,800  Level Boston Center
11:02AM 41.7808 -70.3675 115° Southeast 125 144 2,800  Level Boston Center
11:03AM 41.7711 -70.3211 106° East 128 147 2,800  Level Boston Center
11:04AM 41.7631 -70.2636 101° East 131 151 2,800 -60 Level Boston Center
11:05AM 41.7556 -70.2167 102° East 130 150 2,700 -300 Descending Boston Center
11:06AM 41.7444 -70.1650 106° East 132 152 2,300 -420 Descending Boston Center